createdAt,value
2022-11-22T00:02:22.038Z,99003.40
2022-11-22T00:04:48.657Z,99009.60
2022-11-22T00:07:15.351Z,99014.88
2022-11-22T00:09:42.161Z,99019.60
2022-11-22T00:12:08.814Z,99016.56
2022-11-22T00:14:35.534Z,99021.73
2022-11-22T00:17:02.181Z,99019.38
2022-11-22T00:19:28.913Z,99022.90
2022-11-22T00:21:55.676Z,99021.09
2022-11-22T00:24:22.267Z,99020.54
2022-11-22T00:26:48.886Z,99023.64
2022-11-22T00:29:16.097Z,99026.70
2022-11-22T00:31:42.725Z,99029.38
2022-11-22T00:34:09.401Z,99027.34
2022-11-22T00:36:36.390Z,99021.58
2022-11-22T00:39:03.144Z,99019.34
2022-11-22T00:41:29.775Z,99018.61
2022-11-22T00:43:56.386Z,99025.36
2022-11-22T00:46:23.065Z,99029.67
2022-11-22T00:48:49.876Z,99022.30
2022-11-22T00:51:16.651Z,99016.69
2022-11-22T00:53:43.307Z,99015.02
2022-11-22T00:56:09.951Z,99021.59
2022-11-22T00:58:36.590Z,99026.42
2022-11-22T01:01:03.302Z,99029.71
2022-11-22T01:03:30.045Z,99028.54
2022-11-22T01:05:56.675Z,99026.94
2022-11-22T01:08:23.367Z,99037.48
2022-11-22T01:10:56.080Z,99039.09
2022-11-22T01:13:22.798Z,99045.05
2022-11-22T01:15:49.462Z,99042.93
2022-11-22T01:18:16.150Z,99039.20
2022-11-22T01:20:43.004Z,99040.02
2022-11-22T01:23:09.658Z,99044.23
2022-11-22T01:25:36.340Z,99049.82
2022-11-22T01:28:02.952Z,99054.08
2022-11-22T01:30:29.551Z,99061.77
2022-11-22T01:32:56.167Z,99064.85
2022-11-22T01:35:22.771Z,99065.25
2022-11-22T01:37:49.475Z,99068.37
2022-11-22T01:40:16.484Z,99071.36
2022-11-22T01:42:56.709Z,99078.98
2022-11-22T01:45:29.440Z,99078.53
2022-11-22T01:48:02.111Z,99076.11
2022-11-22T01:50:29.708Z,99083.16
2022-11-22T01:52:56.509Z,99087.48
2022-11-22T01:55:23.244Z,99086.44
2022-11-22T01:57:50.730Z,99081.20
2022-11-22T02:00:17.616Z,99075.92
2022-11-22T02:02:46.471Z,99074.75
2022-11-22T02:05:15.314Z,99072.14
2022-11-22T02:07:45.553Z,99075.77
2022-11-22T02:10:12.317Z,99085.05
2022-11-22T02:12:38.922Z,99088.70
2022-11-22T02:15:07.229Z,99094.18
2022-11-22T02:17:34.259Z,99094.90
2022-11-22T02:20:00.914Z,99099.23
2022-11-22T02:22:45.947Z,99099.52
2022-11-22T02:25:41.899Z,99102.61
2022-11-22T02:28:09.112Z,99099.52
2022-11-22T02:30:36.615Z,99097.79
2022-11-22T02:33:03.867Z,99104.91
2022-11-22T02:35:30.606Z,99107.55
2022-11-22T02:38:08.808Z,99106.91
2022-11-22T02:40:42.438Z,99110.48
2022-11-22T02:43:11.653Z,99123.02
2022-11-22T02:45:38.337Z,99130.98
2022-11-22T02:51:26.606Z,99132.15
2022-11-22T02:53:53.815Z,99133.60
2022-11-22T02:56:20.443Z,99131.09
2022-11-22T02:58:47.080Z,99137.33
2022-11-22T03:01:14.022Z,99144.55
2022-11-22T03:06:33.774Z,99159.75
2022-11-22T11:45:28.922Z,99499.45
2022-11-22T11:47:55.714Z,99502.21
2022-11-22T11:50:24.953Z,99497.80
2022-11-22T11:52:55.957Z,99492.33
2022-11-22T11:55:22.722Z,99500.19
2022-11-22T11:57:49.770Z,99502.42
2022-11-22T12:00:22.356Z,99504.39
2022-11-22T12:02:52.081Z,99509.80
2022-11-22T12:05:18.772Z,99511.25
2022-11-22T12:07:46.399Z,99508.75
2022-11-22T12:10:50.056Z,99503.46
2022-11-22T12:13:35.314Z,99510.85
2022-11-22T12:16:19.164Z,99520.20
2022-11-22T12:18:57.890Z,99536.73
2022-11-22T12:21:36.687Z,99546.77
2022-11-22T12:26:57.643Z,99537.11
2022-11-22T12:29:24.335Z,99542.25
2022-11-22T12:31:55.570Z,99549.20
2022-11-22T12:34:36.628Z,99550.55
2022-11-22T12:37:16.711Z,99550.38
2022-11-22T12:39:47.244Z,99557.50
2022-11-22T12:42:21.596Z,99551.29
2022-11-22T12:44:53.150Z,99555.27
2022-11-22T12:47:22.100Z,99554.00
2022-11-22T12:48:23.810Z,99545.56
2022-11-22T12:49:54.105Z,99550.90
2022-11-22T12:52:39.641Z,99546.77
2022-11-22T12:55:17.733Z,99551.79
2022-11-22T12:58:03.281Z,99555.98
2022-11-22T13:00:32.381Z,99568.80
2022-11-22T13:03:22.276Z,99567.45
2022-11-22T13:05:54.516Z,99561.14
2022-11-22T13:08:41.460Z,99561.91
2022-11-22T13:11:14.118Z,99567.02
2022-11-22T13:13:52.396Z,99567.44
2022-11-22T13:16:19.009Z,99564.54
2022-11-22T13:18:48.263Z,99563.32
2022-11-22T13:21:17.960Z,99565.04
2022-11-22T13:23:56.103Z,99560.35
2022-11-22T13:26:55.818Z,99558.97
2022-11-22T13:29:24.308Z,99558.09
2022-11-22T13:32:12.969Z,99563.42
2022-11-22T13:34:41.749Z,99571.09
2022-11-22T13:37:11.776Z,99572.88
2022-11-22T13:44:51.208Z,99580.33
2022-11-22T13:47:24.364Z,99574.66
2022-11-22T13:49:51.749Z,99570.71
2022-11-22T13:52:19.624Z,99572.58
2022-11-22T13:54:46.346Z,99573.38
2022-11-22T13:57:31.358Z,99574.06
2022-11-22T14:00:13.916Z,99571.95
2022-11-22T14:02:53.475Z,99571.26
2022-11-22T14:05:36.599Z,99573.70
2022-11-22T14:08:49.172Z,99574.16
2022-11-22T14:11:36.456Z,99577.24
2022-11-22T14:14:08.001Z,99579.52
2022-11-22T14:16:40.727Z,99582.42
2022-11-22T14:19:31.933Z,99580.27
2022-11-22T14:22:05.846Z,99584.42
2022-11-22T14:24:39.115Z,99590.85
2022-11-22T14:27:43.677Z,99599.41
2022-11-22T14:30:23.742Z,99605.50
2022-11-22T14:33:15.307Z,99611.58
2022-11-22T14:36:07.005Z,99616.03
2022-11-22T14:42:35.974Z,99618.13
2022-11-22T14:45:11.855Z,99621.39
2022-11-22T14:47:53.766Z,99623.00
2022-11-22T14:50:39.124Z,99619.69
2022-11-22T14:53:32.207Z,99613.88
2022-11-22T14:56:20.446Z,99612.08
2022-11-22T14:59:06.332Z,99612.23
2022-11-22T15:01:39.862Z,99616.08
2022-11-22T15:09:12.791Z,99622.45
2022-11-22T15:09:20.685Z,99615.95
2022-11-22T15:10:43.732Z,99628.55
2022-11-22T15:13:33.594Z,99635.52
2022-11-22T15:59:36.474Z,99661.34
2022-11-22T16:02:03.184Z,99666.53
2022-11-22T16:04:32.000Z,99663.14
2022-11-22T16:07:00.700Z,99664.25
2022-11-22T16:09:36.985Z,99667.18
2022-11-22T16:12:30.408Z,99671.28
2022-11-22T16:14:57.193Z,99674.67
2022-11-22T16:17:32.251Z,99679.74
2022-11-22T16:20:30.980Z,99679.20
2022-11-22T16:23:09.904Z,99679.23
2022-11-22T16:25:38.152Z,99669.68
2022-11-22T16:28:29.255Z,99674.19
2022-11-22T16:31:24.010Z,99674.36
2022-11-22T16:33:51.700Z,99678.73
2022-11-22T16:36:19.476Z,99679.70
2022-11-22T16:38:46.288Z,99674.94
2022-11-22T16:41:24.668Z,99673.46
2022-11-22T16:44:01.922Z,99676.33
2022-11-22T16:46:28.666Z,99677.96
2022-11-22T16:48:55.718Z,99682.80
2022-11-22T16:51:28.538Z,99682.73
2022-11-22T16:53:58.834Z,99683.59
2022-11-22T16:56:29.661Z,99687.16
2022-11-22T16:58:57.082Z,99688.70
2022-11-22T17:01:30.965Z,99691.20
2022-11-22T17:03:57.973Z,99692.53
2022-11-22T17:06:28.955Z,99691.95
2022-11-22T17:08:56.776Z,99694.50
2022-11-22T17:11:25.260Z,99691.09
2022-11-22T17:13:51.919Z,99691.77
2022-11-22T17:16:18.576Z,99692.05
2022-11-22T17:18:46.319Z,99690.27
2022-11-22T17:21:37.778Z,99685.71
2022-11-22T17:24:06.610Z,99680.30
2022-11-22T17:26:34.724Z,99680.54
2022-11-22T17:29:01.595Z,99675.96
2022-11-22T17:31:28.304Z,99671.41
2022-11-22T17:33:56.400Z,99664.58
2022-11-22T17:36:32.778Z,99658.42
2022-11-22T17:39:00.428Z,99651.43
2022-11-22T17:41:27.243Z,99645.44
2022-11-22T17:43:54.109Z,99644.68
2022-11-22T17:46:20.777Z,99638.46
2022-11-22T17:48:52.852Z,99637.65
2022-11-22T17:51:19.545Z,99637.50
2022-11-22T17:53:46.279Z,99638.96
2022-11-22T23:40:39.360Z,99842.40
2022-11-22T23:43:06.096Z,99838.90
2022-11-22T23:45:32.704Z,99842.04
2022-11-22T23:47:59.415Z,99842.16
2022-11-22T23:50:26.083Z,99847.09
2022-11-22T23:52:56.950Z,99848.95
2022-11-22T23:55:23.966Z,99847.17
2022-11-22T23:57:50.637Z,99844.16
